Dauphin Island, Alabama
Current Conditions -  °F | °C
As of 11:55 AM on Saturday 20 Dec 2014 (Local Time) from KCQF Reporting Station
Overcast Overcast  
Wind Chill: 50°   Ceiling: 700
Heat Index: 50°   Visibility: 10mi
Dew Point: 50°   Wind: 9mph
Humidity: 100%   Direction: 30°NNE
Pressure: 30.11"   Gusts: NA
Location:  30.26°N, 88.11°W
Report Text: KCQF 201755Z AUTO 03008KT 10SM OVC007 10/10 A3011 RMK AO2
Loading
Personal Weather Stations






























Interactive Weather Map New forecast layout! Learn more

10-Day Weather Forecast

Advertisements
Track Severe Weather on mobile